Time;durP1;ratioP1;P1;durP2;ratioP2;P2;SDS_P1;SDS_P2;PMS_P1;PMS_P2;Temp;Humidity;BMP_temperature;BMP_pressure;BME280_temperature;BME280_humidity;BME280_pressure;Samples;Min_cycle;Max_cycle;Signal;HPM_P1;HPM_P2
2021/10/09 00:02:05;;;;;;;6.72;3.10;;;;;;;13.51;76.08;98980.44;5115136;28;20093;-94
2021/10/09 00:04:31;;;;;;;7.50;3.20;;;;;;;13.35;75.90;98948.94;5114606;28;20044;-94
2021/10/09 00:06:59;;;;;;;7.55;3.42;;;;;;;13.49;75.91;98985.00;5116247;28;20105;-94
2021/10/09 00:09:28;;;;;;;11.80;4.40;;;;;;;13.29;75.47;98965.19;5117669;28;20043;-96
2021/10/09 00:11:55;;;;;;;8.95;3.83;;;;;;;13.25;74.94;98966.19;5119623;28;20276;-95
2021/10/09 00:14:21;;;;;;;7.13;3.50;;;;;;;13.22;74.70;98960.06;5116016;28;20044;-95
2021/10/09 00:16:47;;;;;;;13.13;3.75;;;;;;;13.26;73.17;98957.25;5114933;28;20130;-95
2021/10/09 00:19:14;;;;;;;7.78;3.60;;;;;;;13.24;72.63;98959.09;5115463;28;20075;-94
2021/10/09 00:24:42;;;;;;;10.10;3.67;;;;;;;13.21;71.94;98948.53;5139840;27;20383;-95
2021/10/09 00:27:08;;;;;;;10.32;4.40;;;;;;;13.17;72.04;98952.22;5139501;27;20063;-96
2021/10/09 00:29:35;;;;;;;9.15;3.88;;;;;;;13.11;72.02;98934.59;5137423;27;20063;-96
2021/10/09 00:32:56;;;;;;;8.65;4.00;;;;;;;13.11;72.06;98931.94;5138156;27;20385;-95
2021/10/09 00:35:41;;;;;;;7.45;3.60;;;;;;;13.06;72.07;98941.06;5036060;28;20091;-95
2021/10/09 00:38:26;;;;;;;15.43;4.38;;;;;;;13.12;71.86;98957.72;5037951;28;20106;-95
2021/10/09 00:40:54;;;;;;;8.98;3.78;;;;;;;13.05;72.00;98947.31;5035198;28;20057;-95
2021/10/09 00:43:20;;;;;;;10.55;3.38;;;;;;;13.00;71.98;98943.94;5035483;28;20046;-96
2021/10/09 00:45:50;;;;;;;9.00;3.60;;;;;;;13.00;71.85;98946.59;5039659;28;20100;-96
2021/10/09 00:48:16;;;;;;;10.85;3.92;;;;;;;13.18;71.87;98972.66;5036471;28;20045;-95
2021/10/09 00:50:42;;;;;;;10.68;3.70;;;;;;;12.91;71.84;98934.44;5035699;28;20050;-96
2021/10/09 00:53:09;;;;;;;12.35;3.67;;;;;;;12.92;71.66;98933.50;5039237;28;20061;-95
2021/10/09 00:55:36;;;;;;;8.80;3.83;;;;;;;12.87;71.85;98930.13;5036813;28;20513;-95
2021/10/09 00:58:06;;;;;;;11.68;4.47;;;;;;;12.89;71.34;98921.13;5037195;28;20546;-96
2021/10/09 01:00:32;;;;;;;10.40;4.03;;;;;;;13.02;71.79;98940.28;5041103;28;20148;-96
2021/10/09 01:02:59;;;;;;;9.70;3.90;;;;;;;12.91;71.30;98927.28;5038756;28;20037;-96
2021/10/09 01:05:31;;;;;;;10.48;3.90;;;;;;;12.86;71.53;98918.59;5058534;28;20048;-95
2021/10/09 01:07:58;;;;;;;10.82;3.78;;;;;;;12.79;71.42;98913.50;5097033;28;20040;-95
2021/10/09 01:10:26;;;;;;;8.10;3.53;;;;;;;12.82;71.39;98924.09;5099564;28;20056;-96
2021/10/09 01:12:52;;;;;;;12.80;4.33;;;;;;;12.79;71.46;98917.03;5130344;28;20045;-96
2021/10/09 01:15:22;;;;;;;11.20;4.32;;;;;;;12.88;71.51;98940.75;5143868;27;20043;-95
2021/10/09 01:17:48;;;;;;;8.77;4.28;;;;;;;12.93;71.53;98945.94;5140234;27;20047;-95
2021/10/09 01:20:16;;;;;;;18.15;4.95;;;;;;;12.81;71.57;98924.97;5121450;28;20048;-95
2021/10/09 01:22:42;;;;;;;10.77;3.97;;;;;;;12.78;71.68;98919.78;5120902;28;20121;-96
2021/10/09 01:25:09;;;;;;;10.32;4.07;;;;;;;12.82;71.52;98922.28;5119481;28;20104;-96
2021/10/09 01:27:39;;;;;;;7.80;3.60;;;;;;;12.75;71.78;98918.03;5135065;28;20039;-96
2021/10/09 01:30:07;;;;;;;8.68;4.03;;;;;;;12.78;71.85;98930.44;5138392;28;20043;-96
2021/10/09 01:32:35;;;;;;;13.50;4.72;;;;;;;12.74;72.04;98910.97;5138725;27;20116;-96
2021/10/09 01:35:03;;;;;;;15.48;4.28;;;;;;;12.88;72.14;98940.75;5130754;27;20052;-96
2021/10/09 01:37:37;;;;;;;6.93;3.67;;;;;;;12.75;72.09;98923.38;5125463;28;20098;-95
2021/10/09 01:40:05;;;;;;;10.77;3.70;;;;;;;12.78;72.30;98919.78;5126452;28;20089;-96
2021/10/09 01:42:31;;;;;;;8.63;3.72;;;;;;;12.85;71.67;98914.16;5127769;28;20141;-95
2021/10/09 01:44:57;;;;;;;8.00;3.47;;;;;;;12.86;72.03;98923.03;5128081;28;20051;-96
2021/10/09 01:47:23;;;;;;;9.95;3.58;;;;;;;12.83;72.07;98921.34;5127436;28;20073;-95
2021/10/09 01:49:49;;;;;;;10.23;4.03;;;;;;;12.79;72.16;98914.34;5128443;28;20048;-96
2021/10/09 01:52:16;;;;;;;11.95;3.80;;;;;;;13.00;72.01;98950.13;5126647;28;20040;-96
2021/10/09 01:54:43;;;;;;;10.35;3.63;;;;;;;12.87;72.02;98930.13;5126412;28;20044;-95
2021/10/09 01:57:09;;;;;;;12.95;4.18;;;;;;;12.99;71.99;98952.84;5127606;28;20043;-94
2021/10/09 01:59:35;;;;;;;9.52;3.28;;;;;;;12.79;72.05;98914.34;5127406;28;20074;-95
2021/10/09 02:02:01;;;;;;;9.68;3.70;;;;;;;12.79;71.99;98922.34;5126365;28;20044;-95
2021/10/09 02:04:27;;;;;;;11.95;3.70;;;;;;;12.82;71.96;98940.97;5124982;28;20134;-95
2021/10/09 02:06:53;;;;;;;9.93;3.47;;;;;;;12.89;72.04;98942.50;5124252;28;20497;-95
2021/10/09 02:09:20;;;;;;;9.27;3.45;;;;;;;12.84;71.51;98920.44;5128123;28;20048;-95
2021/10/09 02:11:50;;;;;;;8.82;3.75;;;;;;;12.91;71.50;98921.09;5126568;27;20039;-96
2021/10/09 02:30:40;;;;;;;9.38;3.70;;;;;;;13.10;71.11;98935.56;5139908;27;20332;-96
2021/10/09 02:33:06;;;;;;;8.60;3.92;;;;;;;13.11;71.27;98926.59;5137633;27;20043;-96
2021/10/09 02:35:33;;;;;;;6.80;3.67;;;;;;;13.08;71.37;98931.19;5136944;27;20130;-95
2021/10/09 02:37:59;;;;;;;9.02;3.40;;;;;;;13.06;71.42;98935.72;5136156;27;20047;-95
2021/10/09 02:40:25;;;;;;;6.13;3.15;;;;;;;13.07;71.48;98934.78;5138441;27;20062;-95
2021/10/09 02:42:51;;;;;;;8.07;3.22;;;;;;;13.24;71.34;98955.56;5134919;27;20047;-95
2021/10/09 02:45:17;;;;;;;12.07;3.42;;;;;;;13.05;71.43;98933.94;5135473;27;20036;-95
2021/10/09 02:47:44;;;;;;;8.80;3.85;;;;;;;13.17;71.26;98967.38;5134866;27;20043;-95
2021/10/09 02:50:13;;;;;;;9.80;3.47;;;;;;;13.04;71.57;98940.22;5133941;27;20573;-95
2021/10/09 02:52:40;;;;;;;8.32;3.90;;;;;;;13.05;71.52;98939.28;5134449;28;20050;-95
2021/10/09 02:55:07;;;;;;;9.38;3.92;;;;;;;13.26;71.03;98959.91;5135811;27;20043;-95
2021/10/09 02:57:34;;;;;;;9.50;3.50;;;;;;;13.28;70.74;98955.41;5134933;27;20570;-95
2021/10/09 03:00:00;;;;;;;6.80;3.20;;;;;;;13.28;69.97;98942.06;5135910;27;20043;-95
2021/10/09 03:02:26;;;;;;;8.02;3.40;;;;;;;13.25;69.95;98943.94;5135820;27;20462;-96
2021/10/09 03:04:53;;;;;;;6.95;3.42;;;;;;;13.42;70.32;98978.97;5134761;27;20046;-94
2021/10/09 03:07:19;;;;;;;8.63;3.47;;;;;;;13.27;70.34;98951.00;5138348;27;20047;-95
2021/10/09 03:09:45;;;;;;;9.95;3.67;;;;;;;13.21;70.69;98945.84;5136891;27;20053;-95
2021/10/09 03:12:11;;;;;;;6.22;3.10;;;;;;;13.40;70.44;98958.59;5136676;27;20063;-94
2021/10/09 03:14:37;;;;;;;10.07;3.03;;;;;;;13.26;71.18;98941.22;5136030;27;20044;-95
2021/10/09 03:17:03;;;;;;;11.48;3.78;;;;;;;13.27;71.38;98960.78;5139013;27;20047;-94
2021/10/09 03:19:29;;;;;;;9.35;3.55;;;;;;;13.29;72.17;98970.53;5135886;27;20039;-95
2021/10/09 03:21:57;;;;;;;6.05;3.13;;;;;;;13.14;72.97;98963.91;5136532;27;20081;-93
2021/10/09 03:24:23;;;;;;;6.18;3.33;;;;;;;13.01;74.19;98953.66;5137583;27;20039;-96
2021/10/09 03:26:54;;;;;;;13.38;4.15;;;;;;;12.94;75.32;98971.69;5140438;27;20108;-94
2021/10/09 03:29:20;;;;;;;7.30;3.13;;;;;;;12.57;78.32;98951.56;5137493;27;20077;-94
2021/10/09 03:31:46;;;;;;;8.38;3.65;;;;;;;12.59;79.77;98971.06;5124088;28;20048;-95
2021/10/09 03:34:12;;;;;;;13.13;3.35;;;;;;;12.29;81.39;98952.41;5124243;28;20051;-96
2021/10/09 03:36:38;;;;;;;6.93;2.92;;;;;;;12.43;82.53;98972.47;5121899;28;20097;-95
2021/10/09 03:39:10;;;;;;;8.32;3.90;;;;;;;12.29;83.24;98957.75;5121515;28;20043;-93
2021/10/09 03:41:42;;;;;;;7.57;3.67;;;;;;;12.08;84.33;98947.78;5122551;28;20092;-94
2021/10/09 03:44:08;;;;;;;8.73;3.35;;;;;;;11.99;85.31;98943.59;5123052;28;20382;-93
2021/10/09 04:05:49;;;;;;;6.15;2.60;;;;;;;11.92;84.11;98939.34;5121744;27;20417;-95
2021/10/09 04:08:15;;;;;;;7.80;2.75;;;;;;;11.93;84.28;98943.78;5100049;28;20048;-94
2021/10/09 04:10:41;;;;;;;6.55;2.72;;;;;;;12.02;84.33;98963.94;5084024;28;20071;-94
2021/10/09 04:13:07;;;;;;;8.07;3.08;;;;;;;11.83;84.76;98950.25;5081719;28;20056;-95
2021/10/09 04:15:34;;;;;;;6.93;2.88;;;;;;;11.75;85.24;98952.25;5080813;28;20490;-95
2021/10/09 04:18:00;;;;;;;7.03;2.47;;;;;;;11.78;86.03;98962.84;5076400;28;20079;-95
2021/10/09 04:20:26;;;;;;;6.50;2.70;;;;;;;11.84;86.72;99000.84;5094138;28;20071;-94
2021/10/09 04:22:53;;;;;;;5.07;3.00;;;;;;;11.63;88.13;98986.31;5102250;28;20112;-95
2021/10/09 04:25:20;;;;;;;8.18;2.90;;;;;;;11.66;89.49;98988.88;5102140;28;20044;-95
2021/10/09 04:27:46;;;;;;;9.35;2.80;;;;;;;11.64;88.98;98984.53;5103184;28;20036;-95
2021/10/09 04:30:13;;;;;;;7.50;2.88;;;;;;;11.70;89.31;98990.56;5103609;28;20048;-95
2021/10/09 04:32:40;;;;;;;5.82;2.80;;;;;;;11.58;89.81;98980.25;5107140;28;20182;-96
2021/10/09 04:35:07;;;;;;;9.00;3.28;;;;;;;11.51;90.37;98968.00;5104711;28;20049;-96
2021/10/09 04:37:33;;;;;;;6.95;2.80;;;;;;;11.69;90.17;98987.94;5105304;28;20040;-95
2021/10/09 04:40:01;;;;;;;7.03;3.40;;;;;;;11.52;90.60;98941.34;5104093;28;20048;-95
2021/10/09 04:42:27;;;;;;;7.20;3.22;;;;;;;11.54;90.58;98951.97;5105373;28;20052;-95
2021/10/09 04:51:33;;;;;;;4.90;2.45;;;;;;;11.62;88.17;98954.41;5022641;28;20034;-95
2021/10/09 04:54:00;;;;;;;10.45;2.85;;;;;;;11.56;86.67;98928.81;5019007;28;20046;-94
2021/10/09 04:56:27;;;;;;;10.82;2.75;;;;;;;11.57;86.93;98930.56;5021356;28;20046;-94
2021/10/09 04:58:53;;;;;;;8.00;2.70;;;;;;;11.56;86.73;98936.81;5020031;28;20046;-95
2021/10/09 05:01:19;;;;;;;7.63;2.95;;;;;;;11.60;86.67;98943.81;5022916;28;20088;-95
2021/10/09 05:03:45;;;;;;;7.78;3.22;;;;;;;11.58;86.39;98942.97;5020256;28;20545;-94
2021/10/09 05:06:13;;;;;;;14.77;3.42;;;;;;;11.58;86.22;98944.75;5010018;28;20117;-95
2021/10/09 05:08:41;;;;;;;6.32;2.35;;;;;;;11.58;86.65;98940.31;5007017;28;20136;-96
2021/10/09 05:11:09;;;;;;;10.95;3.60;;;;;;;11.74;86.45;98970.03;4988729;28;20585;-93
2021/10/09 05:13:37;;;;;;;6.80;2.70;;;;;;;11.56;86.52;98957.22;4989039;28;20147;-94
2021/10/09 05:16:04;;;;;;;8.38;2.70;;;;;;;11.60;86.58;98957.13;4987202;28;20541;-93
2021/10/09 05:18:30;;;;;;;6.60;2.70;;;;;;;11.58;86.59;98953.63;4987058;28;20048;-95
2021/10/09 05:20:56;;;;;;;7.82;3.13;;;;;;;11.62;87.07;98944.59;4980430;28;20051;-95
2021/10/09 05:23:22;;;;;;;5.78;2.60;;;;;;;11.80;86.63;98975.19;4973647;28;20051;-94
2021/10/09 05:25:49;;;;;;;6.97;2.42;;;;;;;11.72;86.32;98967.41;5042555;28;20046;-95
2021/10/09 05:28:20;;;;;;;5.40;2.50;;;;;;;11.63;86.40;98959.69;5047351;28;20071;-96
2021/10/09 05:30:48;;;;;;;5.25;2.50;;;;;;;11.67;86.26;98964.00;5045591;28;20065;-93
2021/10/09 05:33:22;;;;;;;5.50;2.20;;;;;;;11.68;86.32;98968.41;5049057;28;20109;-95
2021/10/09 05:35:49;;;;;;;6.03;2.20;;;;;;;11.70;85.98;98969.25;5045946;28;20045;-95
2021/10/09 05:38:15;;;;;;;6.03;2.30;;;;;;;11.86;86.28;98995.44;5047912;28;20094;-95
2021/10/09 05:40:41;;;;;;;5.10;2.78;;;;;;;11.76;86.17;98965.53;5049174;28;20041;-94
2021/10/09 05:43:07;;;;;;;5.53;2.15;;;;;;;11.87;85.99;98984.75;5046335;28;20179;-95
2021/10/09 05:45:34;;;;;;;3.72;1.77;;;;;;;11.95;85.11;98984.56;5047115;28;20131;-95
2021/10/09 05:48:02;;;;;;;5.38;2.05;;;;;;;12.00;84.56;98974.63;5049958;28;20041;-96
2021/10/09 05:50:38;;;;;;;4.03;1.90;;;;;;;11.94;84.17;98964.16;5069275;28;20453;-96
2021/10/09 07:00:42;;;;;;;5.68;2.00;;;;;;;13.40;73.71;99007.53;5118361;27;20380;-95
2021/10/09 07:03:08;;;;;;;5.05;1.88;;;;;;;13.46;73.85;99014.47;5120233;28;20048;-96
2021/10/09 07:05:39;;;;;;;4.18;2.00;;;;;;;13.54;73.48;99031.13;5121194;28;20040;-95
2021/10/09 07:08:09;;;;;;;4.82;2.03;;;;;;;13.66;73.70;99036.03;5117861;28;20097;-94
2021/10/09 07:10:35;;;;;;;5.32;2.10;;;;;;;13.49;74.57;99004.56;5119639;28;20073;-95
2021/10/09 07:13:01;;;;;;;2.55;1.67;;;;;;;13.80;73.37;99023.97;5116622;28;20044;-96
2021/10/09 07:15:27;;;;;;;5.45;2.40;;;;;;;13.84;72.44;98993.53;5117961;28;20055;-96
2021/10/09 07:17:54;;;;;;;6.43;1.90;;;;;;;14.02;72.13;99019.56;5116885;28;20429;-94
2021/10/09 07:20:21;;;;;;;4.00;1.80;;;;;;;13.69;72.14;99009.19;5117728;28;20040;-94
2021/10/09 07:22:49;;;;;;;5.25;2.00;;;;;;;13.63;72.20;99009.41;5118865;28;20044;-95
2021/10/09 07:25:16;;;;;;;4.60;2.03;;;;;;;13.84;70.57;99013.13;5118429;28;20040;-95
2021/10/09 07:27:42;;;;;;;3.45;1.90;;;;;;;14.20;69.03;99036.72;5119303;28;20048;-96
2021/10/09 07:30:09;;;;;;;2.55;1.67;;;;;;;14.00;67.95;99042.81;5116770;28;20085;-94
2021/10/09 07:32:35;;;;;;;3.60;1.70;;;;;;;14.12;68.31;99050.41;5117782;28;20044;-94
2021/10/09 07:35:03;;;;;;;4.70;1.92;;;;;;;14.26;67.99;99038.31;5116537;28;20431;-93
2021/10/09 07:37:29;;;;;;;3.13;1.65;;;;;;;14.14;66.52;99004.88;5114752;28;20044;-95
2021/10/09 07:39:55;;;;;;;3.25;1.70;;;;;;;14.25;67.39;99032.09;5119214;28;20050;-95
2021/10/09 07:42:21;;;;;;;10.23;1.85;;;;;;;14.34;66.87;99029.06;5116643;28;20123;-93
2021/10/09 07:44:49;;;;;;;5.22;2.28;;;;;;;14.25;66.62;99009.81;5115939;28;20055;-94
2021/10/09 07:47:19;;;;;;;3.97;1.73;;;;;;;14.55;67.08;99047.91;5118532;28;20048;-94
2021/10/09 07:49:45;;;;;;;2.53;1.45;;;;;;;14.88;66.81;99060.94;5118739;28;20040;-96
2021/10/09 07:52:13;;;;;;;4.82;1.80;;;;;;;14.76;66.18;99033.69;5114186;28;20056;-95
2021/10/09 07:54:42;;;;;;;5.22;1.90;;;;;;;14.61;65.47;99022.72;5117995;28;20048;-96
2021/10/09 07:57:08;;;;;;;;;;;;;;;14.83;65.77;99065.56;5119253;28;20055;-95
2021/10/09 07:59:34;;;;;;;2.53;1.63;;;;;;;14.57;65.65;99033.56;5116333;28;19920;-95
2021/10/09 08:02:01;;;;;;;4.97;1.70;;;;;;;14.92;65.13;99030.38;5103238;28;20068;-96
2021/10/09 08:07:30;;;;;;;3.47;1.60;;;;;;;15.16;63.58;99052.66;5151414;27;20850;-94
2021/10/09 08:09:56;;;;;;;3.30;1.70;;;;;;;15.18;63.64;99059.69;5116332;28;20048;-95
2021/10/09 08:12:22;;;;;;;5.20;1.83;;;;;;;15.12;64.41;99049.22;5117320;28;20111;-95
2021/10/09 08:14:48;;;;;;;3.50;1.75;;;;;;;15.22;62.98;99038.97;5118007;28;20051;-96
2021/10/09 08:17:14;;;;;;;3.22;1.67;;;;;;;15.10;63.62;99064.47;5117530;28;20044;-94
2021/10/09 08:19:40;;;;;;;2.13;1.63;;;;;;;15.20;64.10;99067.63;5113748;28;20036;-95
2021/10/09 08:22:09;;;;;;;5.00;1.80;;;;;;;15.06;64.24;99081.59;5114875;28;20044;-93
2021/10/09 08:41:06;;;;;;;4.90;1.60;;;;;;;14.79;66.04;99092.47;5115864;27;20388;-95
2021/10/09 08:43:32;;;;;;;3.47;1.90;;;;;;;14.48;67.23;99071.34;5096834;28;20393;-94
2021/10/09 08:45:58;;;;;;;4.90;1.75;;;;;;;14.68;67.44;99085.78;5112725;28;20032;-93
2021/10/09 08:48:28;;;;;;;4.22;2.13;;;;;;;14.51;67.39;99063.22;5114703;28;20050;-92
2021/10/09 08:50:54;;;;;;;3.72;1.90;;;;;;;14.65;67.07;99085.91;5115162;28;20048;-95
2021/10/09 08:53:46;;;;;;;5.82;2.70;;;;;;;14.74;67.21;99069.50;5115338;28;20048;-93
2021/10/09 08:56:28;;;;;;;3.80;2.13;;;;;;;15.11;66.17;99078.72;5113743;28;20043;-94
2021/10/09 08:59:06;;;;;;;4.72;1.73;;;;;;;15.03;65.44;99073.69;5115973;28;20042;-94
2021/10/09 09:01:41;;;;;;;6.03;1.83;;;;;;;15.46;63.68;99074.63;5113067;28;20089;-95
2021/10/09 09:31:50;;;;;;;4.85;2.05;;;;;;;17.37;55.46;99065.88;5111996;27;20370;-95
2021/10/09 09:34:52;;;;;;;4.53;1.95;;;;;;;17.68;55.33;99070.59;5084734;28;20041;-94
2021/10/09 09:40:22;;;;;;;6.10;2.50;;;;;;;18.00;55.15;99057.31;5152395;27;1381305;-94
2021/10/09 09:42:50;;;;;;;9.32;2.22;;;;;;;17.50;54.60;99066.16;5176645;27;20049;-96
2021/10/09 09:45:20;;;;;;;6.63;2.10;;;;;;;16.99;53.13;99060.59;5178039;27;20091;-95
2021/10/09 09:47:46;;;;;;;3.58;2.00;;;;;;;16.64;54.97;99079.25;5177528;27;20039;-96
2021/10/09 09:50:13;;;;;;;6.40;2.20;;;;;;;16.56;53.94;99076.91;5176515;27;20053;-95
2021/10/09 09:52:41;;;;;;;8.80;2.15;;;;;;;16.57;54.05;99049.13;5175785;27;20046;-94
2021/10/09 09:55:10;;;;;;;3.08;1.90;;;;;;;16.77;53.21;99053.53;5176890;27;20057;-93
2021/10/09 09:57:38;;;;;;;5.35;2.20;;;;;;;16.79;54.52;99048.09;5177031;27;20067;-95
2021/10/09 10:00:09;;;;;;;5.70;2.00;;;;;;;17.00;52.85;99043.53;5170887;27;20047;-95
2021/10/09 10:02:58;;;;;;;4.95;1.90;;;;;;;16.94;52.56;99043.84;5168832;27;20047;-95
2021/10/09 10:05:28;;;;;;;6.40;1.70;;;;;;;16.81;52.09;99044.44;5177696;27;20448;-94
2021/10/09 10:08:20;;;;;;;5.38;2.10;;;;;;;16.42;52.14;99055.22;5175552;27;20527;-95
2021/10/09 10:10:49;;;;;;;5.55;1.90;;;;;;;16.58;51.59;99045.47;5139918;27;20043;-94
2021/10/09 10:13:17;;;;;;;;;;;;;;;16.95;51.67;99075.13;5151174;27;20426;-96
2021/10/09 10:15:46;;;;;;;5.38;1.80;;;;;;;17.33;51.92;99064.31;5138796;27;19923;-96
2021/10/09 10:18:13;;;;;;;7.35;2.00;;;;;;;17.59;49.71;99047.75;5148213;27;20042;-94
2021/10/09 10:21:29;;;;;;;6.10;1.80;;;;;;;17.74;49.35;99062.22;5156623;27;20043;-95
2021/10/09 10:23:58;;;;;;;4.60;1.77;;;;;;;17.80;48.95;99052.94;5155579;27;20043;-92
2021/10/09 10:26:31;;;;;;;6.05;1.88;;;;;;;17.68;50.70;99069.72;5157900;27;20108;-95
2021/10/09 10:29:23;;;;;;;6.85;1.92;;;;;;;16.96;54.12;99082.25;5156710;27;20043;-94
2021/10/09 10:38:56;;;;;;;3.75;1.70;;;;;;;16.22;57.85;99069.53;5135773;27;20375;-92
2021/10/09 10:41:50;;;;;;;4.28;1.90;;;;;;;15.75;58.14;99086.78;5115916;28;20032;-95
2021/10/09 10:45:26;;;;;;;4.65;2.00;;;;;;;15.84;58.31;99074.81;5115423;28;20131;-93
2021/10/09 10:57:25;;;;;;;6.43;1.90;;;;;;;16.28;56.76;99060.34;5135399;27;20363;-95
2021/10/09 10:59:55;;;;;;;3.30;1.63;;;;;;;16.35;56.34;99054.63;5136386;27;20039;-95
2021/10/09 11:02:27;;;;;;;4.60;1.95;;;;;;;16.08;56.89;99043.34;5139586;27;20492;-94
2021/10/09 11:04:55;;;;;;;3.67;1.88;;;;;;;16.03;57.92;99066.81;5137507;27;20043;-95
2021/10/09 11:07:26;;;;;;;3.30;2.25;;;;;;;16.06;57.37;99053.25;5137780;27;20062;-95
2021/10/09 11:09:52;;;;;;;6.40;1.98;;;;;;;16.04;56.76;99055.13;5135796;27;20069;-94
2021/10/09 11:12:19;;;;;;;4.57;1.92;;;;;;;16.16;56.49;99025.09;5135626;27;20095;-94
2021/10/09 11:14:47;;;;;;;4.32;1.92;;;;;;;16.25;55.38;99047.94;5136766;27;20075;-94
2021/10/09 11:17:13;;;;;;;5.93;2.20;;;;;;;16.68;56.03;99051.31;5138610;27;20043;-96
2021/10/09 11:19:42;;;;;;;6.55;2.22;;;;;;;17.11;53.07;99032.25;5137582;27;20039;-95
2021/10/09 11:22:09;;;;;;;4.68;1.92;;;;;;;17.16;52.84;99036.47;5136691;27;20405;-94
2021/10/09 11:24:40;;;;;;;6.82;1.60;;;;;;;16.62;52.80;99032.78;5127710;27;20035;-94
2021/10/09 11:27:06;;;;;;;3.80;1.80;;;;;;;16.16;55.02;99033.13;5135405;27;20047;-94
2021/10/09 11:29:32;;;;;;;5.05;1.98;;;;;;;16.22;54.39;99078.47;5136593;28;20079;-94
2021/10/09 11:32:04;;;;;;;4.57;1.83;;;;;;;16.00;55.07;99051.75;5136179;27;20452;-95
2021/10/09 11:34:30;;;;;;;4.95;1.92;;;;;;;16.04;54.49;99031.00;5137422;27;20050;-96
2021/10/09 11:36:56;;;;;;;7.60;1.98;;;;;;;16.18;54.70;99051.84;5138830;27;20493;-94
2021/10/09 11:39:26;;;;;;;4.72;1.85;;;;;;;16.26;54.98;99081.88;5123260;27;20062;-95
2021/10/09 11:42:02;;;;;;;6.65;1.90;;;;;;;16.35;56.15;99068.06;5130419;28;20108;-95
2021/10/09 11:56:54;;;;;;;3.75;1.95;;;;;;;16.49;54.29;99045.06;5085635;27;20399;-95
2021/10/09 11:59:34;;;;;;;7.40;1.90;;;;;;;16.71;54.33;99044.91;5098484;28;20040;-94
2021/10/09 12:02:00;;;;;;;3.88;1.85;;;;;;;16.80;53.83;99056.09;5079324;28;20517;-93
2021/10/09 12:04:36;;;;;;;3.72;1.80;;;;;;;16.41;53.88;99030.16;5097186;28;20047;-93
2021/10/09 12:10:19;;;;;;;3.28;2.10;;;;;;;16.57;52.62;99042.91;5156217;27;20393;-94
2021/10/09 12:13:03;;;;;;;4.18;1.95;;;;;;;16.51;53.43;99048.56;5140509;27;20101;-92
2021/10/09 12:15:30;;;;;;;4.00;1.80;;;;;;;16.11;53.27;99062.00;5136272;27;20071;-94
2021/10/09 12:17:59;;;;;;;3.28;1.88;;;;;;;15.72;54.94;99043.16;5134720;27;20377;-94
2021/10/09 12:20:26;;;;;;;2.90;1.65;;;;;;;15.97;55.14;99048.31;5134143;27;20102;-94
2021/10/09 12:22:55;;;;;;;3.80;1.70;;;;;;;16.26;54.36;99041.63;5134801;27;20092;-93
2021/10/09 12:25:25;;;;;;;;;;;;;;;15.82;55.35;99056.09;5146675;27;20049;-93
2021/10/09 12:27:55;;;;;;;4.68;1.70;;;;;;;15.83;55.96;99035.53;5132566;27;19963;-94
2021/10/09 12:30:33;;;;;;;3.92;1.85;;;;;;;15.49;56.59;99028.03;5134950;28;20051;-95
2021/10/09 12:32:59;;;;;;;5.38;1.88;;;;;;;15.66;56.93;99021.94;5137375;27;20043;-93
2021/10/09 12:35:29;;;;;;;4.93;1.95;;;;;;;15.73;56.17;99024.31;5137606;27;20047;-93
2021/10/09 12:37:56;;;;;;;5.32;1.92;;;;;;;15.68;57.35;99022.72;5135227;27;20071;-95
2021/10/09 12:40:25;;;;;;;6.70;2.28;;;;;;;15.85;57.87;99041.66;5137216;27;20040;-94
2021/10/09 12:42:53;;;;;;;3.28;1.80;;;;;;;15.86;56.65;99030.00;5138800;27;20051;-94
2021/10/09 12:45:20;;;;;;;7.40;2.10;;;;;;;15.83;56.84;99022.13;5136683;28;20078;-94
2021/10/09 12:47:46;;;;;;;3.75;1.90;;;;;;;16.05;57.03;99007.72;5136868;27;20046;-96
2021/10/09 12:50:12;;;;;;;4.50;2.00;;;;;;;16.26;56.70;99030.88;5138549;27;20092;-96
2021/10/09 12:52:41;;;;;;;2.75;1.90;;;;;;;16.25;56.14;99039.88;5138220;27;20396;-95
2021/10/09 12:55:08;;;;;;;4.20;1.92;;;;;;;16.03;57.21;99029.25;5138550;27;20046;-95
2021/10/09 12:57:47;;;;;;;3.50;2.20;;;;;;;16.15;56.62;99046.59;5139056;27;20035;-95
2021/10/09 13:00:15;;;;;;;4.15;1.90;;;;;;;16.33;57.08;99045.78;5138196;28;20043;-95
2021/10/09 13:02:41;;;;;;;3.67;1.77;;;;;;;16.23;56.54;99026.53;5135533;27;20450;-93
2021/10/09 13:05:10;;;;;;;5.45;2.15;;;;;;;15.71;57.38;99015.47;5134981;27;20047;-96
2021/10/09 13:10:33;;;;;;;6.95;2.25;;;;;;;15.70;57.94;99059.28;5136825;27;20082;-95
2021/10/09 13:13:04;;;;;;;4.75;2.58;;;;;;;15.46;57.44;99015.66;5136768;27;20131;-94
2021/10/09 13:15:33;;;;;;;6.38;2.72;;;;;;;15.81;57.17;99030.22;5132914;27;20063;-96
2021/10/09 13:18:04;;;;;;;4.07;2.17;;;;;;;15.65;56.24;99029.09;5134304;27;20028;-93
2021/10/09 13:20:35;;;;;;;4.47;1.92;;;;;;;15.57;56.27;99024.09;5128187;27;20069;-96
2021/10/09 13:23:03;;;;;;;4.47;1.85;;;;;;;15.77;56.00;99006.31;5126654;28;20047;-96
2021/10/09 13:25:31;;;;;;;4.28;2.00;;;;;;;15.78;56.26;99027.66;5122365;28;20042;-96
2021/10/09 13:27:58;;;;;;;4.38;1.90;;;;;;;15.77;56.68;99033.97;5046373;28;20398;-94
2021/10/09 13:30:28;;;;;;;6.10;2.20;;;;;;;15.65;56.25;99041.66;5050845;28;20040;-94
2021/10/09 13:33:05;;;;;;;3.10;2.00;;;;;;;15.70;57.04;99015.50;5056989;28;20048;-93
2021/10/09 13:35:34;;;;;;;3.97;2.20;;;;;;;15.81;56.69;99043.63;5061665;28;20052;-94
2021/10/09 13:38:02;;;;;;;3.55;2.10;;;;;;;15.77;56.04;99006.31;5064785;28;20041;-96
2021/10/09 13:40:28;;;;;;;10.25;2.20;;;;;;;16.09;56.18;99012.91;5043992;28;20072;-94
2021/10/09 13:42:54;;;;;;;4.70;2.10;;;;;;;16.51;55.28;99033.31;5057640;28;20091;-94
2021/10/09 13:45:20;;;;;;;4.20;1.95;;;;;;;16.13;53.77;99019.84;5055443;28;20057;-92
2021/10/09 13:47:47;;;;;;;3.17;1.73;;;;;;;15.88;54.92;99012.03;5060638;28;20128;-95
2021/10/09 13:50:13;;;;;;;4.03;1.95;;;;;;;15.92;54.96;99002.94;5052998;28;20132;-95
2021/10/09 13:52:40;;;;;;;3.28;1.80;;;;;;;16.16;54.86;99010.81;5061423;28;20045;-94
2021/10/09 13:55:06;;;;;;;3.95;1.95;;;;;;;15.93;55.83;99009.16;5061872;28;20053;-94
2021/10/09 13:57:32;;;;;;;3.58;2.10;;;;;;;15.79;55.38;99034.78;5065168;28;20056;-94
2021/10/09 14:00:04;;;;;;;4.60;2.25;;;;;;;15.52;56.50;99026.09;5054352;28;20045;-95
2021/10/09 14:02:31;;;;;;;5.57;2.70;;;;;;;15.01;57.05;99030.03;5042665;28;20037;-94
2021/10/09 14:04:59;;;;;;;6.78;2.55;;;;;;;15.07;56.89;99037.81;5043278;28;20052;-95
2021/10/09 14:07:25;;;;;;;6.25;2.72;;;;;;;14.89;56.37;99034.06;5043386;28;20531;-94
2021/10/09 14:09:51;;;;;;;8.05;3.00;;;;;;;14.72;58.06;99020.50;5059241;28;20096;-94
2021/10/09 14:12:17;;;;;;;6.20;2.97;;;;;;;14.82;57.51;99026.38;5052572;28;20045;-95
2021/10/09 14:14:44;;;;;;;8.13;3.75;;;;;;;14.52;57.95;99046.19;5062107;28;20095;-94
2021/10/09 14:17:10;;;;;;;7.18;3.17;;;;;;;14.33;57.98;99024.66;5063808;28;20044;-95
2021/10/09 14:19:36;;;;;;;7.78;2.50;;;;;;;14.39;57.89;99015.50;5063106;28;20478;-96
2021/10/09 14:22:04;;;;;;;6.40;2.78;;;;;;;14.52;58.21;99018.56;5064311;28;20391;-95
2021/10/09 14:24:30;;;;;;;7.70;2.95;;;;;;;14.56;58.16;99018.44;5064132;28;20041;-95
2021/10/09 14:26:56;;;;;;;5.30;2.53;;;;;;;14.74;56.94;99032.00;5063867;28;20100;-94
2021/10/09 14:29:22;;;;;;;5.22;2.85;;;;;;;14.79;57.79;99030.91;5045029;28;20554;-96
2021/10/09 14:31:48;;;;;;;6.30;3.22;;;;;;;14.75;57.88;99017.72;5058330;28;20052;-95
2021/10/09 14:34:19;;;;;;;7.53;3.33;;;;;;;14.68;58.20;99013.50;5062639;28;20037;-95
2021/10/09 14:36:48;;;;;;;6.03;3.17;;;;;;;14.72;57.57;99015.13;5063460;28;20048;-95
2021/10/09 14:39:26;;;;;;;6.70;2.63;;;;;;;14.75;58.07;99029.28;5061443;28;20055;-96
2021/10/09 14:41:53;;;;;;;6.07;2.80;;;;;;;14.66;58.68;99021.63;5049858;28;20109;-96
2021/10/09 14:44:19;;;;;;;4.13;2.70;;;;;;;14.75;58.88;99017.72;5066586;28;20099;-96
2021/10/09 14:49:51;;;;;;;8.50;2.90;;;;;;;14.61;58.70;99017.38;5118922;27;20389;-95
2021/10/09 15:19:25;;;;;;;8.10;3.10;;;;;;;14.14;60.35;99020.94;5071922;28;20370;-95
2021/10/09 15:21:51;;;;;;;7.68;4.20;;;;;;;14.13;60.61;99020.03;5042434;28;20041;-95
2021/10/09 15:24:17;;;;;;;7.65;3.08;;;;;;;14.23;59.99;99054.50;5037738;28;20049;-94
2021/10/09 15:26:45;;;;;;;6.13;3.05;;;;;;;13.97;60.26;99030.44;5038387;28;20045;-93
2021/10/09 15:29:11;;;;;;;6.85;2.92;;;;;;;14.05;59.71;99054.25;5037473;28;20205;-95
2021/10/09 15:31:37;;;;;;;7.18;2.78;;;;;;;13.97;60.16;99048.28;5040520;28;20081;-94